KCQW

Cheraw Municipal / Lynch Bellinger Field Airport

Cheraw, South Carolina, USA
METAR KCQW 201515Z AUTO 00000KT 1/4SM FG OVC001 15/15 A3047 RMK AO2
Observed Flight Rules
Feb-20 @ 15:15 UTC (2 hours ago) Instrument Flight Rules
Wind Visibility Clouds Conditions
Calm 1/4 miles
  • Overcast at 100' AGL
  • Fog
Temperatures Readings
Current 15°C / 59°F
Dewpoint 15°C / 59°F
Humidity 100%
Altimeter 30.47" Hg
Pressure 1032 hPa
Elevation 73
METAR KCQW 201515Z AUTO 00000KT 1/4SM FG OVC001 15/15 A3047 RMK AO2
Observed Flight Rules
Feb-20 @ 15:15 UTC
(2 hours ago)
LIFR
Wind Visibility
Calm 1/4 miles
Clouds
  • Overcast at 100' AGL
Conditions
  • Fog
Temperature Dewpoint
15°C / 59°F 15°C / 59°F
Humidity Altimeter Pressure
100% 30.47" Hg 1032 hPa